createdAt,value
2022-12-26T00:07:15.619Z,88.98
2022-12-26T00:17:19.803Z,89.26
2022-12-26T00:27:25.097Z,90.31
2022-12-26T00:37:29.079Z,90.69
2022-12-26T00:47:33.154Z,90.56
2022-12-26T00:57:37.562Z,89.87
2022-12-26T01:08:23.618Z,90.23
2022-12-26T01:18:07.099Z,90.09
2022-12-26T01:28:10.959Z,90.59
2022-12-26T01:38:15.014Z,90.66
2022-12-26T01:48:33.848Z,89.99
2022-12-26T01:58:48.160Z,90.22
2022-12-26T02:08:52.635Z,91.06
2022-12-26T02:18:56.624Z,90.86
2022-12-26T02:29:03.374Z,90.41
2022-12-26T02:39:47.347Z,90.07
2022-12-26T02:50:27.367Z,90.32
2022-12-26T03:00:53.445Z,95.11
2022-12-26T03:11:17.927Z,98.07
2022-12-26T03:21:27.975Z,98.04
2022-12-26T03:31:31.837Z,97.44
2022-12-26T03:42:16.962Z,97.92
2022-12-26T03:52:58.288Z,96.11
2022-12-26T04:03:30.139Z,94.02
2022-12-26T04:14:05.481Z,92.06
2022-12-26T04:24:59.189Z,90.20
2022-12-26T04:36:01.485Z,89.50
2022-12-26T04:46:07.858Z,89.64
2022-12-26T04:56:11.715Z,89.26
2022-12-26T05:06:34.189Z,88.98
2022-12-26T05:16:56.476Z,88.68
2022-12-26T05:27:19.479Z,88.89
2022-12-26T05:37:24.175Z,88.60
2022-12-26T05:47:28.159Z,87.84
2022-12-26T05:57:33.156Z,87.94
2022-12-26T06:07:37.118Z,87.96
2022-12-26T06:17:41.829Z,88.55
2022-12-26T06:27:45.779Z,88.26
2022-12-26T06:37:49.985Z,88.25
2022-12-26T06:47:54.241Z,88.61
2022-12-26T06:57:58.100Z,88.29
2022-12-26T07:08:02.001Z,88.66
2022-12-26T07:18:06.169Z,88.63
2022-12-26T07:28:10.560Z,89.02
2022-12-26T07:38:15.023Z,88.55
2022-12-26T07:48:19.281Z,88.74
2022-12-26T07:58:23.287Z,88.73
2022-12-26T08:08:27.346Z,88.73
2022-12-26T08:18:31.327Z,87.80
2022-12-26T08:28:36.015Z,86.60
2022-12-26T08:38:41.723Z,86.28
2022-12-26T08:48:47.915Z,85.92
2022-12-26T08:58:52.140Z,84.63
2022-12-26T09:08:56.348Z,84.19
2022-12-26T09:19:02.534Z,84.43
2022-12-26T09:29:06.921Z,83.60
2022-12-26T09:39:12.434Z,83.24
2022-12-26T09:49:45.664Z,82.41
2022-12-26T09:59:56.328Z,81.48
2022-12-26T10:10:14.809Z,81.61
2022-12-26T10:20:33.216Z,81.17
2022-12-26T10:30:42.055Z,80.74
2022-12-26T10:40:50.822Z,80.04
2022-12-26T10:50:54.830Z,80.32
2022-12-26T11:01:27.817Z,79.39
2022-12-26T11:11:49.146Z,79.36
2022-12-26T11:21:53.544Z,79.27
2022-12-26T11:32:03.529Z,78.10
2022-12-26T11:42:21.726Z,77.82
2022-12-26T11:52:57.349Z,77.30
2022-12-26T12:03:03.180Z,77.11
2022-12-26T12:13:32.502Z,77.63
2022-12-26T12:24:07.642Z,77.12
2022-12-26T12:34:31.608Z,77.50
2022-12-26T12:45:13.795Z,78.43
2022-12-26T12:55:32.050Z,78.48
2022-12-26T13:05:56.946Z,78.53
2022-12-26T13:16:12.975Z,78.91
2022-12-26T13:26:24.304Z,79.39
2022-12-26T13:36:53.506Z,80.07
2022-12-26T13:47:02.535Z,80.54
2022-12-26T13:57:28.580Z,80.44
2022-12-26T14:19:46.879Z,81.10
2022-12-26T14:30:28.621Z,81.16
2022-12-26T14:52:25.207Z,81.55
2022-12-26T15:02:35.257Z,82.21
2022-12-26T15:12:41.384Z,82.48
2022-12-26T15:23:30.707Z,82.71
2022-12-26T15:33:49.979Z,82.91
2022-12-26T15:44:20.959Z,83.58
2022-12-26T15:54:47.819Z,83.33
2022-12-26T16:05:12.490Z,83.87
2022-12-26T16:15:18.605Z,84.10
2022-12-26T16:25:25.896Z,83.92
2022-12-26T16:35:36.528Z,84.48
2022-12-26T16:45:46.232Z,84.91
2022-12-26T16:56:43.598Z,84.97
2022-12-26T17:07:22.980Z,84.43
2022-12-26T17:17:42.660Z,83.54
2022-12-26T17:28:17.425Z,83.40
2022-12-26T17:38:30.677Z,83.74
2022-12-26T17:48:35.753Z,84.17
2022-12-26T17:58:41.118Z,84.88
2022-12-26T18:08:46.080Z,86.27
2022-12-26T18:18:51.116Z,86.55
2022-12-26T18:28:56.990Z,86.54
2022-12-26T18:39:02.005Z,87.40
2022-12-26T18:49:06.604Z,87.35
2022-12-26T18:59:12.120Z,86.90
2022-12-26T19:09:17.709Z,85.64
2022-12-26T19:19:28.532Z,86.20
2022-12-26T19:29:35.455Z,87.64
2022-12-26T19:39:41.645Z,87.66
2022-12-26T19:49:47.067Z,87.93
2022-12-26T19:59:52.119Z,88.30
2022-12-26T20:09:57.488Z,87.80
2022-12-26T20:20:01.787Z,87.54
2022-12-26T20:30:08.057Z,87.32
2022-12-26T20:40:13.909Z,86.64
2022-12-26T20:50:19.247Z,86.58
2022-12-26T21:00:24.386Z,87.77
2022-12-26T21:10:29.121Z,88.77
2022-12-26T21:20:36.683Z,88.53
2022-12-26T21:30:45.699Z,88.41
2022-12-26T21:40:50.399Z,88.33
2022-12-26T21:50:54.721Z,88.30
2022-12-26T22:00:59.011Z,88.38
2022-12-26T22:11:22.425Z,88.45
2022-12-26T22:21:26.795Z,88.16
2022-12-26T22:31:33.487Z,87.23
2022-12-26T22:41:38.533Z,87.00
2022-12-26T22:51:42.497Z,86.68
2022-12-26T23:01:46.439Z,86.15
2022-12-26T23:12:10.807Z,86.06
2022-12-26T23:22:15.000Z,85.49
2022-12-26T23:32:19.069Z,85.23
2022-12-26T23:42:23.263Z,85.28
2022-12-26T23:52:30.696Z,85.03
